Time;durP1;ratioP1;P1;durP2;ratioP2;P2;SDS_P1;SDS_P2;PMS_P1;PMS_P2;Temp;Humidity;BMP_temperature;BMP_pressure;BME280_temperature;BME280_humidity;BME280_pressure;Samples;Min_cycle;Max_cycle;Signal;HPM_P1;HPM_P2
2021/11/15 00:00:02;;;;;;;27.73;16.38;;;;;;;9.71;72.80;97795.38;5057862;28;20085;-80
2021/11/15 00:02:27;;;;;;;27.35;14.73;;;;;;;9.47;73.53;97799.72;5041627;28;20466;-79
2021/11/15 00:04:53;;;;;;;25.35;15.43;;;;;;;9.73;72.08;97789.94;5030165;28;20040;-81
2021/11/15 00:07:19;;;;;;;22.88;15.70;;;;;;;9.53;72.87;97791.03;5006951;28;20025;-78
2021/11/15 00:09:44;;;;;;;25.42;13.57;;;;;;;9.44;73.12;97792.38;5022822;28;20032;-81
2021/11/15 00:12:11;;;;;;;25.48;14.18;;;;;;;9.32;73.65;97796.72;5033651;28;20032;-78
2021/11/15 00:14:37;;;;;;;23.95;14.70;;;;;;;9.57;72.66;97792.16;5031759;28;20391;-80
2021/11/15 00:17:04;;;;;;;24.67;16.42;;;;;;;9.41;73.23;97792.81;5047550;28;20025;-82
2021/11/15 00:19:32;;;;;;;23.98;14.07;;;;;;;9.13;74.07;97788.97;5051899;28;20028;-80
2021/11/15 00:21:59;;;;;;;29.77;16.95;;;;;;;9.39;73.35;97789.66;5067736;28;20024;-80
2021/11/15 00:24:24;;;;;;;28.30;16.20;;;;;;;9.33;73.02;97787.91;5066910;28;20047;-80
2021/11/15 00:26:50;;;;;;;26.58;15.18;;;;;;;9.38;73.50;97795.84;5030145;28;20017;-79
2021/11/15 00:29:15;;;;;;;27.45;16.00;;;;;;;9.32;73.06;97791.53;5047111;28;20036;-80
2021/11/15 00:31:40;;;;;;;27.50;15.68;;;;;;;9.51;72.66;97798.28;5035639;28;20033;-80
2021/11/15 00:34:06;;;;;;;26.40;15.98;;;;;;;9.44;73.20;97791.56;5012247;28;20029;-81
2021/11/15 00:36:31;;;;;;;26.15;15.25;;;;;;;9.31;73.01;97797.75;5032452;28;20655;-79
2021/11/15 00:38:57;;;;;;;25.20;16.15;;;;;;;9.52;72.43;97796.44;5044676;28;20091;-79
2021/11/15 00:41:22;;;;;;;27.52;16.42;;;;;;;9.56;72.48;97793.19;5054418;28;20128;-79
2021/11/15 00:43:48;;;;;;;26.17;15.80;;;;;;;9.44;72.37;97797.56;5025299;28;20037;-79
2021/11/15 00:46:13;;;;;;;28.45;15.57;;;;;;;9.39;72.96;97794.84;5040833;28;20054;-80
2021/11/15 00:48:38;;;;;;;22.80;14.52;;;;;;;9.47;72.23;97799.72;5047548;28;20031;-79
2021/11/15 00:51:04;;;;;;;25.27;15.15;;;;;;;9.19;73.75;97795.88;5010060;28;20091;-79
2021/11/15 00:53:32;;;;;;;27.42;15.20;;;;;;;9.35;73.00;97791.09;5012820;28;20450;-79
2021/11/15 00:55:58;;;;;;;28.92;16.13;;;;;;;9.44;72.72;97796.75;5003689;28;20025;-79
2021/11/15 00:58:24;;;;;;;26.90;14.55;;;;;;;9.70;71.94;97800.81;5030539;28;20060;-79
2021/11/15 01:00:49;;;;;;;27.45;16.17;;;;;;;9.64;71.94;97793.88;5025623;28;20035;-82
2021/11/15 01:03:16;;;;;;;26.13;14.90;;;;;;;9.64;71.71;97786.09;4997435;28;20849;-79
2021/11/15 01:05:47;;;;;;;27.17;15.10;;;;;;;9.48;72.33;97790.91;5015206;28;20029;-79
2021/11/15 01:08:14;;;;;;;24.90;14.95;;;;;;;9.37;72.63;97792.47;5027059;28;20048;-80
2021/11/15 01:10:39;;;;;;;25.83;15.05;;;;;;;9.47;72.56;97791.91;5050638;28;20107;-80
2021/11/15 01:13:05;;;;;;;24.75;15.05;;;;;;;9.64;72.00;97796.50;5067870;28;20119;-79
2021/11/15 01:15:31;;;;;;;23.60;14.43;;;;;;;9.45;72.36;97793.94;5085005;28;20034;-81
2021/11/15 01:17:58;;;;;;;26.35;16.05;;;;;;;9.54;72.05;97803.03;5033644;28;20044;-79
2021/11/15 01:20:27;;;;;;;24.25;15.40;;;;;;;9.65;71.65;97796.28;5060250;28;20024;-80
2021/11/15 01:22:52;;;;;;;26.45;14.98;;;;;;;9.65;71.84;97795.50;5068069;28;20040;-80
2021/11/15 01:25:18;;;;;;;27.15;15.75;;;;;;;9.51;72.06;97797.47;5034953;28;20032;-80
2021/11/15 01:27:44;;;;;;;27.70;15.90;;;;;;;9.21;73.17;97785.28;5034610;28;20086;-80
2021/11/15 01:30:15;;;;;;;29.27;15.35;;;;;;;9.13;72.99;97781.19;5052263;28;20024;-79
2021/11/15 01:32:41;;;;;;;28.38;15.05;;;;;;;9.61;71.67;97789.13;5042090;28;20082;-79
2021/11/15 01:35:07;;;;;;;29.38;16.15;;;;;;;9.56;71.91;97784.59;5048584;28;20581;-80
2021/11/15 01:37:33;;;;;;;24.75;14.15;;;;;;;9.05;72.89;97786.69;5064659;28;20112;-81
2021/11/15 01:39:59;;;;;;;27.38;14.80;;;;;;;9.59;72.05;97789.34;5047536;28;20021;-79
2021/11/15 01:42:24;;;;;;;28.75;15.30;;;;;;;9.54;71.80;97790.03;5031388;28;20117;-80
2021/11/15 01:44:50;;;;;;;26.90;14.63;;;;;;;9.22;72.69;97783.47;5031358;28;20435;-79
2021/11/15 01:47:15;;;;;;;26.17;14.27;;;;;;;9.49;72.03;97794.28;5028617;28;20545;-80
2021/11/15 01:49:41;;;;;;;30.73;16.17;;;;;;;9.32;72.67;97787.13;5050367;28;20037;-80
2021/11/15 01:52:07;;;;;;;27.88;15.98;;;;;;;9.52;71.88;97792.03;5045554;28;20036;-79
2021/11/15 01:54:33;;;;;;;28.67;15.95;;;;;;;9.21;72.61;97781.88;5050798;28;20028;-80
2021/11/15 01:56:59;;;;;;;25.17;15.40;;;;;;;9.37;72.29;97789.88;5051333;28;20029;-80
2021/11/15 01:59:25;;;;;;;28.65;15.98;;;;;;;9.51;71.65;97784.47;5050608;28;20039;-79
2021/11/15 02:01:50;;;;;;;30.02;15.75;;;;;;;9.44;71.99;97788.97;5049944;28;20024;-79
2021/11/15 02:04:15;;;;;;;30.35;16.70;;;;;;;9.69;71.46;97786.22;5051109;28;20497;-79
2021/11/15 02:06:41;;;;;;;28.23;15.63;;;;;;;9.65;71.33;97790.28;5067363;28;20036;-79
2021/11/15 02:09:07;;;;;;;28.17;16.23;;;;;;;9.65;71.80;97785.88;5052055;28;20533;-79
2021/11/15 02:11:34;;;;;;;25.83;16.05;;;;;;;9.49;71.88;97781.28;5069895;28;20074;-79
2021/11/15 02:14:00;;;;;;;27.15;15.43;;;;;;;9.43;71.81;97777.78;5034835;28;20067;-79
2021/11/15 02:16:26;;;;;;;27.52;14.90;;;;;;;9.44;72.04;97779.38;5051381;28;20033;-79
2021/11/15 02:18:52;;;;;;;31.63;17.02;;;;;;;9.26;72.53;97775.00;5051428;28;20031;-79
2021/11/15 02:21:18;;;;;;;39.40;15.85;;;;;;;9.50;71.97;97768.06;5068019;28;20530;-79
2021/11/15 02:23:44;;;;;;;34.25;17.25;;;;;;;9.51;71.87;97768.88;5051419;28;20162;-79
2021/11/15 02:26:12;;;;;;;30.58;17.38;;;;;;;9.30;72.42;97772.75;5035092;28;20359;-79
2021/11/15 02:28:41;;;;;;;30.13;16.08;;;;;;;9.35;72.11;97783.28;5034703;28;20117;-79
2021/11/15 02:31:08;;;;;;;30.13;16.88;;;;;;;9.47;71.90;97784.13;5051185;28;20036;-79
2021/11/15 02:33:34;;;;;;;29.42;15.27;;;;;;;9.68;71.29;97787.22;5051142;28;20107;-79
2021/11/15 02:36:00;;;;;;;29.50;17.13;;;;;;;9.53;71.01;97796.25;5051043;28;20623;-79
2021/11/15 02:38:27;;;;;;;27.80;15.98;;;;;;;9.66;70.92;97797.06;5068223;28;20029;-79
2021/11/15 02:40:53;;;;;;;27.23;15.73;;;;;;;9.68;71.15;97795.03;5050910;28;20032;-79
2021/11/15 02:43:19;;;;;;;28.70;15.30;;;;;;;9.73;70.93;97793.34;5067941;28;20036;-79
2021/11/15 02:45:44;;;;;;;28.23;15.55;;;;;;;9.73;70.83;97795.13;5017940;28;20466;-79
2021/11/15 02:48:09;;;;;;;26.92;15.48;;;;;;;9.80;70.44;97782.84;5034655;28;20060;-79
2021/11/15 02:50:35;;;;;;;27.50;15.93;;;;;;;9.66;70.96;97784.06;5034139;28;20036;-79
2021/11/15 02:53:07;;;;;;;27.77;15.43;;;;;;;9.59;71.08;97780.75;5033625;28;20039;-79
2021/11/15 02:55:35;;;;;;;26.33;15.40;;;;;;;9.33;71.74;97780.13;5051517;28;20059;-79
2021/11/15 02:58:04;;;;;;;26.70;14.60;;;;;;;9.45;71.65;97785.38;5034383;28;20039;-79
2021/11/15 03:00:42;;;;;;;25.25;14.77;;;;;;;9.35;71.21;97786.66;5030655;28;20035;-79
2021/11/15 03:03:09;;;;;;;28.02;15.15;;;;;;;9.64;71.00;97778.28;5032027;28;20029;-79
2021/11/15 03:05:39;;;;;;;25.90;14.63;;;;;;;9.52;71.17;97780.84;5053992;28;20039;-79
2021/11/15 03:08:06;;;;;;;27.73;15.50;;;;;;;9.39;71.91;97771.44;5046599;28;20025;-79
2021/11/15 03:10:35;;;;;;;27.42;15.32;;;;;;;9.09;72.51;97764.44;5068165;28;20090;-81
2021/11/15 03:13:01;;;;;;;27.42;14.43;;;;;;;9.30;72.28;97768.34;5017558;28;20075;-80
2021/11/15 03:15:28;;;;;;;31.25;15.27;;;;;;;9.46;71.36;97772.16;5075393;28;20032;-79
2021/11/15 03:17:59;;;;;;;26.52;14.10;;;;;;;9.22;71.62;97762.66;5036200;28;20038;-81
2021/11/15 03:20:27;;;;;;;24.75;14.95;;;;;;;8.85;72.83;97773.16;5031015;28;20041;-79
2021/11/15 03:22:52;;;;;;;28.65;15.20;;;;;;;9.16;72.69;97762.53;5030860;28;20037;-79
2021/11/15 03:25:18;;;;;;;25.92;15.05;;;;;;;9.19;72.46;97756.13;5030489;28;20168;-79
2021/11/15 03:27:43;;;;;;;26.77;13.57;;;;;;;9.25;72.44;97752.63;5046202;28;20115;-79
2021/11/15 03:30:09;;;;;;;26.65;14.77;;;;;;;9.42;71.63;97754.59;5025110;28;20028;-80
2021/11/15 03:32:35;;;;;;;24.50;14.02;;;;;;;9.26;71.92;97758.63;5033177;28;20036;-80
2021/11/15 03:35:02;;;;;;;26.33;15.07;;;;;;;9.34;71.34;97764.31;5050489;28;20028;-79
2021/11/15 03:37:28;;;;;;;25.67;14.02;;;;;;;9.62;70.92;97765.50;5049949;28;20040;-79
2021/11/15 03:39:54;;;;;;;26.17;14.70;;;;;;;9.63;70.66;97761.09;5050695;28;20048;-79
2021/11/15 03:42:19;;;;;;;26.45;15.10;;;;;;;9.82;70.07;97759.19;5067917;28;20028;-79
2021/11/15 03:44:44;;;;;;;26.65;14.93;;;;;;;9.55;71.01;97762.22;5049927;28;20036;-79
2021/11/15 03:47:10;;;;;;;24.85;14.15;;;;;;;9.38;71.71;97760.25;5049803;28;20482;-79
2021/11/15 03:49:35;;;;;;;26.67;15.40;;;;;;;9.47;71.37;97765.13;5049598;28;20151;-79
2021/11/15 03:52:01;;;;;;;23.30;13.57;;;;;;;9.33;72.04;97759.34;5032773;28;20082;-79
2021/11/15 03:54:26;;;;;;;29.92;15.73;;;;;;;9.65;71.03;97764.28;5016944;28;20027;-79
2021/11/15 03:56:51;;;;;;;27.38;15.02;;;;;;;9.49;71.12;97765.69;5052560;28;20440;-79
2021/11/15 03:59:17;;;;;;;27.65;15.35;;;;;;;9.40;71.47;97762.63;5070376;28;20032;-79
2021/11/15 04:01:44;;;;;;;26.80;15.50;;;;;;;9.40;71.54;97762.63;5052987;28;20032;-79
2021/11/15 04:04:16;;;;;;;29.42;14.35;;;;;;;9.56;71.27;97761.19;5070470;28;20024;-79
2021/11/15 04:06:48;;;;;;;25.17;14.25;;;;;;;9.51;71.05;97761.88;5038816;28;20031;-79
2021/11/15 04:09:14;;;;;;;28.88;15.77;;;;;;;9.52;70.89;97760.84;5071220;28;20024;-79
2021/11/15 04:11:39;;;;;;;25.15;14.07;;;;;;;9.42;70.95;97768.38;5052661;28;20047;-79
2021/11/15 04:14:08;;;;;;;29.08;15.43;;;;;;;9.31;71.57;97764.75;5061477;28;20048;-80
2021/11/15 04:16:34;;;;;;;28.67;15.02;;;;;;;9.18;72.41;97760.53;5031808;28;20021;-79
2021/11/15 04:19:04;;;;;;;25.40;14.48;;;;;;;9.24;71.80;97758.06;5044882;28;20041;-79
2021/11/15 04:21:31;;;;;;;30.92;14.88;;;;;;;9.45;71.16;97765.34;5032828;28;20525;-79
2021/11/15 04:23:57;;;;;;;27.77;15.13;;;;;;;9.49;70.94;97761.31;5016621;28;20028;-79
2021/11/15 04:26:22;;;;;;;26.90;14.85;;;;;;;9.29;71.73;97753.78;5033586;28;20024;-79
2021/11/15 04:28:47;;;;;;;30.95;16.30;;;;;;;9.21;72.08;97759.28;5049836;28;20728;-79
2021/11/15 04:31:13;;;;;;;26.88;16.15;;;;;;;9.41;71.40;97753.00;5067480;28;20040;-79
2021/11/15 04:33:38;;;;;;;27.58;15.80;;;;;;;9.30;71.74;97746.78;5016914;28;20138;-79
2021/11/15 04:36:04;;;;;;;27.45;14.88;;;;;;;9.48;71.06;97757.13;5049547;28;20056;-79
2021/11/15 04:38:30;;;;;;;28.08;16.08;;;;;;;9.33;71.24;97762.72;5049828;28;20086;-81
2021/11/15 04:40:55;;;;;;;28.55;14.98;;;;;;;9.29;71.80;97761.59;5035021;28;20119;-80
2021/11/15 04:43:20;;;;;;;30.27;16.13;;;;;;;9.31;71.78;97759.56;5071679;28;20742;-80
2021/11/15 04:45:46;;;;;;;25.58;15.40;;;;;;;9.36;71.79;97758.91;5036914;28;20028;-79
2021/11/15 04:48:11;;;;;;;28.70;16.05;;;;;;;9.43;71.27;97757.00;5053634;28;20033;-81
2021/11/15 04:50:37;;;;;;;26.20;14.77;;;;;;;9.55;71.07;97750.00;5022534;28;20034;-79
2021/11/15 04:53:03;;;;;;;25.83;14.40;;;;;;;9.47;71.07;97747.72;5073429;28;20485;-79
2021/11/15 04:55:29;;;;;;;26.98;15.40;;;;;;;9.52;70.88;97755.66;5073497;28;20035;-79
2021/11/15 04:57:55;;;;;;;27.15;15.00;;;;;;;9.25;71.39;97747.44;5073049;28;20032;-79
2021/11/15 05:00:26;;;;;;;27.08;16.13;;;;;;;9.43;70.94;97754.38;5039714;28;20032;-79
2021/11/15 05:02:52;;;;;;;28.55;15.70;;;;;;;9.45;71.08;97748.97;5072478;28;20147;-79
2021/11/15 05:05:18;;;;;;;29.80;16.42;;;;;;;9.37;71.80;97747.47;5072909;28;20032;-79
2021/11/15 05:07:45;;;;;;;26.13;14.95;;;;;;;9.24;71.56;97752.88;5051267;28;20020;-80
2021/11/15 05:10:11;;;;;;;30.05;15.32;;;;;;;9.29;71.91;97750.41;5036107;28;20025;-79
2021/11/15 05:12:37;;;;;;;31.20;16.27;;;;;;;9.23;71.54;97746.88;5052650;28;20059;-80
2021/11/15 05:15:07;;;;;;;27.88;14.55;;;;;;;9.02;72.55;97744.78;5052448;28;20036;-79
2021/11/15 05:17:33;;;;;;;28.48;15.55;;;;;;;9.45;71.53;97751.56;5032325;28;20032;-79
2021/11/15 05:19:59;;;;;;;26.83;14.90;;;;;;;9.59;70.56;97752.94;5069163;28;20035;-79
2021/11/15 05:22:24;;;;;;;29.73;16.13;;;;;;;9.27;71.46;97749.81;5022655;28;20032;-80
2021/11/15 05:24:49;;;;;;;28.10;14.38;;;;;;;9.15;71.93;97750.59;5079685;28;20675;-80
2021/11/15 05:27:15;;;;;;;30.00;15.43;;;;;;;9.25;71.72;97744.06;5019457;28;20036;-79
2021/11/15 05:29:40;;;;;;;27.85;15.82;;;;;;;9.29;71.65;97738.19;5036209;28;20037;-79
2021/11/15 05:32:06;;;;;;;25.75;14.88;;;;;;;9.46;71.40;97745.34;5052155;28;20036;-79
2021/11/15 05:34:31;;;;;;;31.40;15.63;;;;;;;9.48;71.30;97748.53;5036046;28;20025;-79
2021/11/15 05:36:57;;;;;;;26.65;14.48;;;;;;;9.37;71.28;97745.69;5044839;28;20081;-80
2021/11/15 05:39:22;;;;;;;29.58;15.90;;;;;;;9.26;72.01;97743.03;5072800;28;20028;-79
2021/11/15 05:41:48;;;;;;;28.23;14.98;;;;;;;9.25;71.77;97747.44;5017504;28;20029;-79
2021/11/15 05:44:14;;;;;;;27.42;15.65;;;;;;;9.47;71.20;97741.75;5015784;28;20426;-79
2021/11/15 05:46:39;;;;;;;30.17;15.90;;;;;;;9.41;71.33;97747.81;5015143;28;20373;-80
2021/11/15 05:49:05;;;;;;;29.85;16.52;;;;;;;9.41;71.25;97747.81;5034668;28;20033;-79
2021/11/15 05:51:30;;;;;;;30.42;15.32;;;;;;;9.32;71.34;97749.94;5053653;28;20090;-79
2021/11/15 05:53:57;;;;;;;29.02;15.13;;;;;;;9.30;71.41;97741.56;5052166;28;20028;-79
2021/11/15 05:56:22;;;;;;;32.33;16.10;;;;;;;9.40;71.22;97746.25;5019364;28;20021;-80
2021/11/15 05:58:48;;;;;;;29.80;16.13;;;;;;;9.21;72.17;97746.31;5070064;28;20055;-80
2021/11/15 06:01:13;;;;;;;31.67;16.15;;;;;;;9.32;71.58;97744.75;5050352;28;20545;-80
2021/11/15 06:03:39;;;;;;;36.47;20.27;;;;;;;9.45;71.25;97739.38;5034554;28;20037;-79
2021/11/15 06:06:04;;;;;;;29.20;17.25;;;;;;;9.32;71.62;97744.75;5050344;28;20094;-79
2021/11/15 06:08:29;;;;;;;30.38;16.02;;;;;;;9.36;71.27;97743.31;5050888;28;20747;-80
2021/11/15 06:10:55;;;;;;;30.60;16.40;;;;;;;9.29;71.73;97745.22;5053665;28;20115;-79
2021/11/15 06:13:21;;;;;;;30.63;16.70;;;;;;;9.15;72.27;97745.38;5089315;28;20036;-80
2021/11/15 06:15:47;;;;;;;33.67;18.23;;;;;;;9.21;72.33;97748.91;5071275;28;20027;-78
2021/11/15 06:18:14;;;;;;;36.97;22.63;;;;;;;9.43;71.76;97751.00;5052809;28;20042;-79
2021/11/15 06:20:40;;;;;;;30.10;15.38;;;;;;;9.05;72.54;97755.50;5032793;28;20087;-79
2021/11/15 06:23:06;;;;;;;31.98;16.05;;;;;;;9.22;72.31;97758.28;5049998;28;20600;-78
2021/11/15 06:25:34;;;;;;;31.48;15.90;;;;;;;9.34;71.91;97766.91;5034285;28;20032;-81
2021/11/15 06:27:59;;;;;;;28.20;16.10;;;;;;;9.27;72.33;97770.59;5051122;28;20113;-78
2021/11/15 06:30:25;;;;;;;30.45;15.32;;;;;;;9.03;72.70;97764.53;5030519;28;20029;-78
2021/11/15 06:32:50;;;;;;;30.17;16.65;;;;;;;9.11;72.79;97767.59;5030471;28;20055;-79
2021/11/15 06:35:16;;;;;;;31.10;17.83;;;;;;;9.35;71.71;97776.28;5014812;28;20475;-78
2021/11/15 06:37:43;;;;;;;32.15;17.73;;;;;;;9.36;71.95;97774.50;5051511;28;20059;-79
2021/11/15 06:40:10;;;;;;;31.38;17.98;;;;;;;9.26;71.80;97772.41;5051415;28;20091;-79
2021/11/15 06:42:36;;;;;;;32.70;16.80;;;;;;;9.44;71.32;97778.56;5034191;28;20051;-79
2021/11/15 06:45:02;;;;;;;31.42;17.27;;;;;;;9.19;71.97;97776.91;5089285;28;20513;-81
2021/11/15 06:47:33;;;;;;;31.60;16.00;;;;;;;9.07;72.20;97776.84;5060430;28;20489;-80
2021/11/15 06:49:58;;;;;;;26.83;15.23;;;;;;;9.35;71.86;97780.69;5051623;28;20044;-79
2021/11/15 06:52:24;;;;;;;28.98;15.07;;;;;;;9.47;71.06;97778.91;5067642;28;20036;-79
2021/11/15 06:54:49;;;;;;;31.38;15.30;;;;;;;9.36;71.26;97777.09;5037565;28;20181;-79
2021/11/15 06:57:15;;;;;;;27.95;15.80;;;;;;;9.43;71.26;97772.59;5062176;28;20098;-79
2021/11/15 06:59:41;;;;;;;31.92;16.70;;;;;;;9.35;71.44;97775.50;5034799;28;20480;-79
2021/11/15 07:02:08;;;;;;;27.90;16.05;;;;;;;9.12;71.93;97769.19;5039753;28;20047;-81
2021/11/15 07:04:34;;;;;;;30.10;16.15;;;;;;;9.31;71.52;97763.97;5040773;28;20028;-80
2021/11/15 07:06:59;;;;;;;31.13;15.75;;;;;;;9.36;71.50;97771.91;5016807;28;20035;-79
2021/11/15 07:09:25;;;;;;;32.35;16.25;;;;;;;9.29;71.54;97777.19;5049650;28;20088;-79
2021/11/15 07:11:50;;;;;;;31.83;16.33;;;;;;;9.43;71.36;97782.97;5032892;28;20086;-79
2021/11/15 07:14:17;;;;;;;26.27;15.05;;;;;;;9.49;70.93;97778.69;5033328;28;20107;-80
2021/11/15 07:16:42;;;;;;;31.35;16.92;;;;;;;9.61;70.59;97784.72;5016839;28;20032;-79
2021/11/15 07:19:08;;;;;;;28.42;16.83;;;;;;;9.45;70.88;97783.56;5015620;28;20032;-79
2021/11/15 07:21:34;;;;;;;28.70;15.18;;;;;;;9.41;70.89;97789.41;5032487;28;20060;-80
2021/11/15 07:23:59;;;;;;;28.52;15.23;;;;;;;9.27;71.43;97791.38;5067523;28;20068;-81
2021/11/15 07:26:25;;;;;;;25.67;14.85;;;;;;;9.38;71.02;97795.84;5012964;28;20183;-80
2021/11/15 07:28:51;;;;;;;23.75;13.85;;;;;;;9.23;70.99;97798.06;5013236;28;20479;-79
2021/11/15 07:31:17;;;;;;;27.50;14.73;;;;;;;9.38;70.96;97799.22;5023262;28;20029;-78
2021/11/15 07:33:42;;;;;;;28.08;15.48;;;;;;;9.33;71.30;97804.28;5029467;28;20039;-79
2021/11/15 07:36:08;;;;;;;29.65;15.23;;;;;;;9.25;71.75;97796.03;5029500;28;20035;-78
2021/11/15 07:38:34;;;;;;;31.50;17.02;;;;;;;9.21;71.52;97794.88;5028923;28;20024;-79
2021/11/15 07:40:59;;;;;;;29.83;16.83;;;;;;;9.24;71.42;97799.66;5023269;28;20024;-79
2021/11/15 07:43:25;;;;;;;29.80;15.70;;;;;;;9.37;71.15;97800.25;5052735;28;20687;-79
2021/11/15 07:45:50;;;;;;;27.83;15.93;;;;;;;9.41;70.80;97802.41;5015257;28;20059;-79
2021/11/15 07:48:16;;;;;;;32.40;17.83;;;;;;;9.43;70.68;97803.78;5048974;28;20035;-80
2021/11/15 07:50:42;;;;;;;28.73;16.75;;;;;;;9.47;70.56;97802.31;5031771;28;20036;-79
2021/11/15 07:53:08;;;;;;;24.77;13.93;;;;;;;9.56;70.53;97795.78;5049408;28;20495;-79
2021/11/15 07:55:34;;;;;;;28.08;16.02;;;;;;;9.26;71.13;97801.00;5048724;28;20032;-80
2021/11/15 07:58:01;;;;;;;27.75;14.70;;;;;;;9.13;71.63;97799.38;5032537;28;20024;-79
2021/11/15 08:00:28;;;;;;;27.45;16.30;;;;;;;9.08;72.00;97796.66;5032254;28;20027;-79
2021/11/15 08:02:53;;;;;;;28.55;16.63;;;;;;;9.03;71.90;97809.50;5048688;28;20029;-79
2021/11/15 08:05:19;;;;;;;30.38;16.15;;;;;;;9.26;71.09;97805.41;5048102;28;20032;-79
2021/11/15 08:07:46;;;;;;;27.25;15.90;;;;;;;9.13;71.12;97809.78;5031735;28;20131;-79
2021/11/15 08:10:14;;;;;;;31.13;16.88;;;;;;;9.14;71.12;97807.97;5032395;28;20044;-79
2021/11/15 08:12:42;;;;;;;30.65;15.88;;;;;;;9.44;70.54;97818.38;5048554;28;20041;-78
2021/11/15 08:15:10;;;;;;;31.33;16.65;;;;;;;9.43;70.21;97816.00;5018455;28;20032;-79
2021/11/15 08:17:39;;;;;;;27.08;16.30;;;;;;;9.33;70.41;97816.50;5035885;28;20032;-78
2021/11/15 08:20:07;;;;;;;25.48;14.40;;;;;;;9.19;71.05;97819.28;5053099;28;20064;-81
2021/11/15 08:22:32;;;;;;;26.25;15.07;;;;;;;9.43;70.54;97814.16;5015392;28;20032;-79
2021/11/15 08:25:01;;;;;;;24.50;14.27;;;;;;;9.18;70.76;97816.88;5036983;28;20232;-79
2021/11/15 08:27:27;;;;;;;26.42;15.05;;;;;;;9.27;70.39;97809.56;5035971;28;20036;-79
2021/11/15 08:29:55;;;;;;;24.60;14.60;;;;;;;9.45;70.07;97812.13;5019486;28;20394;-78
2021/11/15 08:32:24;;;;;;;25.38;15.00;;;;;;;9.65;69.70;97806.66;5035977;28;20055;-78
2021/11/15 08:34:51;;;;;;;26.17;15.75;;;;;;;9.51;69.77;97802.66;5052975;28;20039;-79
2021/11/15 08:37:17;;;;;;;31.40;16.05;;;;;;;9.56;69.77;97808.78;5052366;28;20063;-79
2021/11/15 08:39:42;;;;;;;26.20;15.43;;;;;;;9.53;69.61;97803.25;5035864;28;20497;-79
2021/11/15 08:42:11;;;;;;;24.33;13.73;;;;;;;9.41;70.04;97803.22;5028951;28;20045;-80
2021/11/15 08:44:41;;;;;;;24.70;14.18;;;;;;;9.64;69.57;97805.06;5035027;28;20525;-79
2021/11/15 08:47:07;;;;;;;29.45;15.23;;;;;;;9.70;69.54;97803.41;5045183;28;20440;-79
2021/11/15 08:49:35;;;;;;;23.13;14.05;;;;;;;9.62;69.47;97809.72;5051053;28;20036;-79
2021/11/15 08:52:03;;;;;;;24.98;15.50;;;;;;;9.61;69.50;97802.13;5053254;28;20040;-79
2021/11/15 08:54:29;;;;;;;25.23;14.75;;;;;;;9.77;69.30;97801.50;5031933;28;20141;-79
2021/11/15 08:57:01;;;;;;;28.20;16.70;;;;;;;9.60;69.35;97796.16;5016566;28;20123;-78
2021/11/15 08:59:26;;;;;;;25.33;14.02;;;;;;;9.65;69.39;97792.88;4999807;28;20033;-79
2021/11/15 09:01:52;;;;;;;22.73;14.23;;;;;;;9.57;69.67;97789.56;5051393;28;20032;-79
2021/11/15 09:04:18;;;;;;;25.70;14.45;;;;;;;9.59;69.90;97785.97;5052098;28;20031;-79
2021/11/15 09:06:44;;;;;;;28.27;15.45;;;;;;;9.73;69.31;97792.53;5035654;28;20719;-79
2021/11/15 09:09:14;;;;;;;24.75;14.70;;;;;;;9.73;69.32;97789.94;5018466;28;20028;-78
2021/11/15 09:11:48;;;;;;;22.50;14.10;;;;;;;9.44;69.61;97778.56;5069568;28;20028;-79
2021/11/15 09:14:14;;;;;;;26.88;15.52;;;;;;;9.61;69.74;97776.91;5051966;28;20037;-79
2021/11/15 09:16:41;;;;;;;26.88;14.93;;;;;;;9.29;70.35;97774.56;5035117;28;20643;-80
2021/11/15 09:19:07;;;;;;;24.38;14.18;;;;;;;9.42;70.38;97788.41;5034731;28;20386;-79
2021/11/15 09:21:32;;;;;;;23.48;12.85;;;;;;;9.34;70.41;97779.13;5034972;28;20040;-79
2021/11/15 09:23:58;;;;;;;24.27;14.10;;;;;;;9.38;70.41;97791.44;5051806;28;20037;-79
2021/11/15 09:26:26;;;;;;;25.10;14.88;;;;;;;9.65;69.90;97800.69;5050210;28;20032;-79
2021/11/15 09:28:53;;;;;;;24.98;13.82;;;;;;;9.66;69.45;97803.03;5051613;28;20545;-79
2021/11/15 09:31:19;;;;;;;25.00;15.10;;;;;;;9.67;69.50;97801.25;5051064;28;20486;-79
2021/11/15 09:33:44;;;;;;;22.55;15.05;;;;;;;9.35;70.54;97801.47;5018356;28;20039;-80
2021/11/15 09:36:10;;;;;;;22.00;13.63;;;;;;;9.47;69.97;97801.53;5034654;28;20032;-79
2021/11/15 09:38:36;;;;;;;22.58;13.20;;;;;;;9.66;69.56;97805.63;5031063;28;20037;-79
2021/11/15 09:41:04;;;;;;;25.85;13.57;;;;;;;9.42;69.69;97802.19;5038473;28;20024;-81
2021/11/15 09:43:35;;;;;;;22.40;12.95;;;;;;;9.71;68.81;97812.78;5060168;28;20028;-79
2021/11/15 09:46:08;;;;;;;23.88;14.35;;;;;;;9.64;68.99;97809.50;5051372;28;20627;-79
2021/11/15 09:48:36;;;;;;;20.83;12.13;;;;;;;9.41;69.49;97813.59;5050667;28;20028;-80
2021/11/15 09:51:03;;;;;;;25.98;15.70;;;;;;;9.71;69.11;97817.97;5034644;28;20036;-79
2021/11/15 09:53:29;;;;;;;24.70;13.55;;;;;;;9.57;69.52;97815.56;5034880;28;20386;-80
2021/11/15 09:55:55;;;;;;;21.70;13.65;;;;;;;9.59;69.38;97812.75;5019185;28;20035;-80
2021/11/15 09:58:22;;;;;;;23.00;13.23;;;;;;;9.36;69.64;97819.44;5051236;28;20040;-80
2021/11/15 10:00:47;;;;;;;20.08;12.88;;;;;;;9.12;70.48;97831.56;5050256;28;20482;-80
2021/11/15 10:03:13;;;;;;;25.05;13.93;;;;;;;9.14;70.71;97831.34;5034437;28;20028;-81
2021/11/15 10:05:38;;;;;;;19.95;12.65;;;;;;;9.29;70.13;97828.38;5034633;28;20036;-79
2021/11/15 10:08:08;;;;;;;22.63;12.65;;;;;;;9.13;70.17;97827.94;5030538;28;20036;-80
2021/11/15 10:10:45;;;;;;;22.63;13.73;;;;;;;9.13;70.01;97838.34;5030518;28;20663;-79
2021/11/15 10:13:23;;;;;;;22.13;13.00;;;;;;;9.07;70.28;97846.22;5030838;28;20045;-80
2021/11/15 10:16:10;;;;;;;22.10;13.63;;;;;;;9.21;69.92;97837.25;5047292;28;20126;-80
2021/11/15 10:18:44;;;;;;;20.20;12.70;;;;;;;9.61;68.94;97835.94;5033820;28;20044;-79
2021/11/15 10:21:17;;;;;;;20.05;12.63;;;;;;;9.59;68.62;97837.97;5067874;28;20039;-80
2021/11/15 10:24:02;;;;;;;23.90;13.80;;;;;;;9.02;69.84;97839.06;5034007;28;20123;-80
2021/11/15 10:26:38;;;;;;;22.20;13.40;;;;;;;9.17;70.23;97829.09;5034345;28;20017;-79
2021/11/15 10:29:22;;;;;;;21.73;12.30;;;;;;;8.85;70.69;97831.06;5034227;28;20035;-82
2021/11/15 10:31:53;;;;;;;21.88;12.77;;;;;;;9.21;69.78;97828.66;5034107;28;20098;-81
2021/11/15 10:34:26;;;;;;;20.42;12.90;;;;;;;9.16;69.70;97832.69;5034338;28;20375;-80
2021/11/15 10:37:18;;;;;;;21.67;12.90;;;;;;;9.04;70.41;97823.25;5034000;28;20016;-79
2021/11/15 10:39:51;;;;;;;22.83;13.68;;;;;;;9.25;70.06;97816.81;5033678;28;20043;-80
2021/11/15 10:42:21;;;;;;;23.02;13.02;;;;;;;9.25;69.82;97816.81;5049439;28;20060;-81
2021/11/15 10:44:55;;;;;;;21.88;12.52;;;;;;;9.25;69.74;97796.03;5050226;28;20021;-80
2021/11/15 10:47:31;;;;;;;19.75;12.20;;;;;;;9.21;69.64;97797.47;5050309;28;20036;-80
2021/11/15 10:50:05;;;;;;;22.50;13.80;;;;;;;9.16;69.89;97785.91;5067464;28;20090;-80
2021/11/15 10:52:34;;;;;;;20.17;12.70;;;;;;;9.44;69.29;97784.59;5050079;28;20032;-79
2021/11/15 10:57:39;;;;;;;20.88;12.63;;;;;;;9.54;68.68;97789.22;5050073;28;20028;-80
2021/11/15 11:00:04;;;;;;;20.40;12.85;;;;;;;9.44;69.31;97784.59;5033355;28;20033;-79
2021/11/15 11:02:30;;;;;;;19.52;12.73;;;;;;;9.42;69.13;97785.78;5049731;28;20538;-79
2021/11/15 11:05:09;;;;;;;20.20;12.93;;;;;;;9.32;69.50;97791.53;5050414;28;20028;-81
2021/11/15 11:07:40;;;;;;;20.85;13.15;;;;;;;9.40;69.09;97790.44;5050024;28;20039;-79
2021/11/15 11:10:09;;;;;;;22.45;13.30;;;;;;;9.32;69.43;97791.53;5067340;28;20036;-79
2021/11/15 11:12:38;;;;;;;21.33;13.10;;;;;;;9.54;68.76;97782.22;5013819;28;20119;-79
2021/11/15 11:18:37;;;;;;;21.27;13.48;;;;;;;9.32;69.05;97775.94;5031777;28;20602;-80
2021/11/15 11:24:12;;;;;;;21.38;12.65;;;;;;;9.55;68.77;97776.00;5050439;28;20025;-79
2021/11/15 11:26:37;;;;;;;24.75;14.55;;;;;;;9.51;68.93;97777.47;5066268;28;20023;-79
2021/11/15 11:29:04;;;;;;;24.45;14.13;;;;;;;9.24;70.04;97768.47;5013273;28;20487;-80
2021/11/15 11:31:31;;;;;;;22.20;13.50;;;;;;;9.25;69.86;97765.63;5030591;28;20041;-80